sensor_id;sensor_type;location;lat;lon;timestamp;temperature;humidity
65207;SHT31;58477;48.072;11.970;2023-06-26T00:00:11;16.57;71.80
65207;SHT31;58477;48.072;11.970;2023-06-26T00:02:37;16.57;71.78
65207;SHT31;58477;48.072;11.970;2023-06-26T00:05:02;16.66;72.10
65207;SHT31;58477;48.072;11.970;2023-06-26T00:07:29;16.70;70.94
65207;SHT31;58477;48.072;11.970;2023-06-26T00:09:55;16.70;71.04
65207;SHT31;58477;48.072;11.970;2023-06-26T00:12:21;16.66;70.86
65207;SHT31;58477;48.072;11.970;2023-06-26T00:14:46;16.34;71.92
65207;SHT31;58477;48.072;11.970;2023-06-26T00:17:12;16.42;71.00
65207;SHT31;58477;48.072;11.970;2023-06-26T00:19:37;16.49;70.29
65207;SHT31;58477;48.072;11.970;2023-06-26T00:22:02;16.59;70.29
65207;SHT31;58477;48.072;11.970;2023-06-26T00:24:28;16.59;71.21
65207;SHT31;58477;48.072;11.970;2023-06-26T00:26:53;16.56;71.37
65207;SHT31;58477;48.072;11.970;2023-06-26T00:29:19;16.45;72.22
65207;SHT31;58477;48.072;11.970;2023-06-26T00:31:44;16.22;72.70
65207;SHT31;58477;48.072;11.970;2023-06-26T00:34:09;16.12;72.60
65207;SHT31;58477;48.072;11.970;2023-06-26T00:36:35;16.23;72.25
65207;SHT31;58477;48.072;11.970;2023-06-26T00:39:00;16.29;71.99
65207;SHT31;58477;48.072;11.970;2023-06-26T00:41:26;16.15;72.26
65207;SHT31;58477;48.072;11.970;2023-06-26T00:43:52;15.91;73.84
65207;SHT31;58477;48.072;11.970;2023-06-26T00:46:17;15.94;73.55
65207;SHT31;58477;48.072;11.970;2023-06-26T00:48:44;16.01;73.58
65207;SHT31;58477;48.072;11.970;2023-06-26T00:51:11;16.06;74.03
65207;SHT31;58477;48.072;11.970;2023-06-26T00:53:37;16.04;74.09
65207;SHT31;58477;48.072;11.970;2023-06-26T00:56:03;15.98;74.83
65207;SHT31;58477;48.072;11.970;2023-06-26T00:58:30;15.92;75.64
65207;SHT31;58477;48.072;11.970;2023-06-26T01:00:56;15.69;76.38
65207;SHT31;58477;48.072;11.970;2023-06-26T01:03:23;15.71;76.94
65207;SHT31;58477;48.072;11.970;2023-06-26T01:05:50;15.68;76.33
65207;SHT31;58477;48.072;11.970;2023-06-26T01:08:17;15.58;77.63
65207;SHT31;58477;48.072;11.970;2023-06-26T01:10:44;15.64;77.40
65207;SHT31;58477;48.072;11.970;2023-06-26T01:13:11;15.64;77.61
65207;SHT31;58477;48.072;11.970;2023-06-26T01:15:37;15.35;79.49
65207;SHT31;58477;48.072;11.970;2023-06-26T01:18:03;15.26;80.78
65207;SHT31;58477;48.072;11.970;2023-06-26T01:20:35;15.24;80.56
65207;SHT31;58477;48.072;11.970;2023-06-26T01:23:18;15.28;80.38
65207;SHT31;58477;48.072;11.970;2023-06-26T01:28:42;15.30;79.57
65207;SHT31;58477;48.072;11.970;2023-06-26T01:31:08;15.33;79.54
65207;SHT31;58477;48.072;11.970;2023-06-26T01:33:36;15.40;78.99
65207;SHT31;58477;48.072;11.970;2023-06-26T01:36:02;15.37;80.06
65207;SHT31;58477;48.072;11.970;2023-06-26T01:38:28;15.31;79.90
65207;SHT31;58477;48.072;11.970;2023-06-26T01:40:56;15.10;80.09
65207;SHT31;58477;48.072;11.970;2023-06-26T01:43:35;14.97;80.42
65207;SHT31;58477;48.072;11.970;2023-06-26T01:46:14;14.75;81.16
65207;SHT31;58477;48.072;11.970;2023-06-26T01:51:34;14.89;80.96
65207;SHT31;58477;48.072;11.970;2023-06-26T01:54:01;14.80;81.12
65207;SHT31;58477;48.072;11.970;2023-06-26T01:56:28;14.80;81.06
65207;SHT31;58477;48.072;11.970;2023-06-26T01:58:54;14.79;81.13
65207;SHT31;58477;48.072;11.970;2023-06-26T02:01:21;14.76;81.53
65207;SHT31;58477;48.072;11.970;2023-06-26T02:03:47;14.84;81.28
65207;SHT31;58477;48.072;11.970;2023-06-26T02:06:13;14.97;81.12
65207;SHT31;58477;48.072;11.970;2023-06-26T02:08:38;15.08;80.64
65207;SHT31;58477;48.072;11.970;2023-06-26T02:11:04;15.08;80.41
65207;SHT31;58477;48.072;11.970;2023-06-26T02:13:29;15.08;79.88
65207;SHT31;58477;48.072;11.970;2023-06-26T02:15:55;15.04;79.80
65207;SHT31;58477;48.072;11.970;2023-06-26T02:18:20;15.04;79.75
65207;SHT31;58477;48.072;11.970;2023-06-26T02:20:49;14.89;80.20
65207;SHT31;58477;48.072;11.970;2023-06-26T02:23:15;14.90;80.13
65207;SHT31;58477;48.072;11.970;2023-06-26T02:25:40;14.90;80.13
65207;SHT31;58477;48.072;11.970;2023-06-26T02:28:08;14.91;80.03
65207;SHT31;58477;48.072;11.970;2023-06-26T02:30:35;14.91;79.81
65207;SHT31;58477;48.072;11.970;2023-06-26T02:33:00;14.90;79.20
65207;SHT31;58477;48.072;11.970;2023-06-26T02:35:26;14.83;79.73
65207;SHT31;58477;48.072;11.970;2023-06-26T02:37:51;14.73;80.44
65207;SHT31;58477;48.072;11.970;2023-06-26T02:40:17;14.62;79.78
65207;SHT31;58477;48.072;11.970;2023-06-26T02:42:42;14.48;80.83
65207;SHT31;58477;48.072;11.970;2023-06-26T02:45:08;14.73;79.46
65207;SHT31;58477;48.072;11.970;2023-06-26T02:47:34;14.94;78.16
65207;SHT31;58477;48.072;11.970;2023-06-26T02:50:00;14.96;78.91
65207;SHT31;58477;48.072;11.970;2023-06-26T02:52:28;14.93;78.82
65207;SHT31;58477;48.072;11.970;2023-06-26T02:54:55;14.97;78.73
65207;SHT31;58477;48.072;11.970;2023-06-26T02:57:20;14.96;78.79
65207;SHT31;58477;48.072;11.970;2023-06-26T02:59:46;14.89;79.50
65207;SHT31;58477;48.072;11.970;2023-06-26T03:02:12;14.86;79.54
65207;SHT31;58477;48.072;11.970;2023-06-26T03:04:42;14.89;79.33
65207;SHT31;58477;48.072;11.970;2023-06-26T03:07:12;14.87;79.34
65207;SHT31;58477;48.072;11.970;2023-06-26T03:09:38;14.86;79.75
65207;SHT31;58477;48.072;11.970;2023-06-26T03:12:04;14.79;80.38
65207;SHT31;58477;48.072;11.970;2023-06-26T03:14:31;14.77;80.33
65207;SHT31;58477;48.072;11.970;2023-06-26T03:16:57;14.77;79.98
65207;SHT31;58477;48.072;11.970;2023-06-26T03:19:25;14.49;80.73
65207;SHT31;58477;48.072;11.970;2023-06-26T03:22:15;14.43;79.54
65207;SHT31;58477;48.072;11.970;2023-06-26T03:24:40;14.58;79.00
65207;SHT31;58477;48.072;11.970;2023-06-26T03:27:06;14.52;79.16
65207;SHT31;58477;48.072;11.970;2023-06-26T03:29:32;14.52;79.67
65207;SHT31;58477;48.072;11.970;2023-06-26T03:31:58;14.58;79.74
65207;SHT31;58477;48.072;11.970;2023-06-26T03:34:24;14.66;79.76
65207;SHT31;58477;48.072;11.970;2023-06-26T03:36:49;14.70;79.65
65207;SHT31;58477;48.072;11.970;2023-06-26T03:39:15;14.75;79.82
65207;SHT31;58477;48.072;11.970;2023-06-26T03:41:40;14.75;80.23
65207;SHT31;58477;48.072;11.970;2023-06-26T03:44:06;14.75;80.18
65207;SHT31;58477;48.072;11.970;2023-06-26T03:46:41;14.73;80.33
65207;SHT31;58477;48.072;11.970;2023-06-26T03:49:07;14.69;80.43
65207;SHT31;58477;48.072;11.970;2023-06-26T03:51:32;14.69;81.04
65207;SHT31;58477;48.072;11.970;2023-06-26T03:53:58;14.70;81.16
65207;SHT31;58477;48.072;11.970;2023-06-26T03:56:23;14.72;80.95
65207;SHT31;58477;48.072;11.970;2023-06-26T03:58:49;14.77;80.58
65207;SHT31;58477;48.072;11.970;2023-06-26T04:01:14;14.72;80.80
65207;SHT31;58477;48.072;11.970;2023-06-26T04:03:39;14.83;81.23
65207;SHT31;58477;48.072;11.970;2023-06-26T04:06:06;14.93;81.40
65207;SHT31;58477;48.072;11.970;2023-06-26T04:08:32;15.01;80.98
65207;SHT31;58477;48.072;11.970;2023-06-26T04:10:57;15.11;80.64
65207;SHT31;58477;48.072;11.970;2023-06-26T04:13:24;15.21;80.62
65207;SHT31;58477;48.072;11.970;2023-06-26T04:15:49;15.23;80.06
65207;SHT31;58477;48.072;11.970;2023-06-26T04:18:15;15.24;80.86
65207;SHT31;58477;48.072;11.970;2023-06-26T04:20:43;15.06;80.17
65207;SHT31;58477;48.072;11.970;2023-06-26T04:23:27;14.76;81.42
65207;SHT31;58477;48.072;11.970;2023-06-26T04:25:52;14.75;81.44
65207;SHT31;58477;48.072;11.970;2023-06-26T04:28:17;14.96;81.84
65207;SHT31;58477;48.072;11.970;2023-06-26T04:30:43;15.10;80.52
65207;SHT31;58477;48.072;11.970;2023-06-26T04:33:08;15.23;80.13
65207;SHT31;58477;48.072;11.970;2023-06-26T04:35:37;15.38;79.85
65207;SHT31;58477;48.072;11.970;2023-06-26T04:38:02;15.50;80.70
65207;SHT31;58477;48.072;11.970;2023-06-26T04:40:28;15.59;79.97
65207;SHT31;58477;48.072;11.970;2023-06-26T04:42:53;15.62;79.68
65207;SHT31;58477;48.072;11.970;2023-06-26T04:45:18;15.72;78.74
65207;SHT31;58477;48.072;11.970;2023-06-26T04:47:44;15.88;78.92
65207;SHT31;58477;48.072;11.970;2023-06-26T04:50:09;15.97;79.37
65207;SHT31;58477;48.072;11.970;2023-06-26T04:52:34;16.06;79.30
65207;SHT31;58477;48.072;11.970;2023-06-26T04:55:00;16.16;79.30
65207;SHT31;58477;48.072;11.970;2023-06-26T04:57:25;16.19;79.39
65207;SHT31;58477;48.072;11.970;2023-06-26T04:59:51;16.42;78.17
65207;SHT31;58477;48.072;11.970;2023-06-26T05:02:16;16.93;75.27
65207;SHT31;58477;48.072;11.970;2023-06-26T05:04:41;18.22;72.32
65207;SHT31;58477;48.072;11.970;2023-06-26T05:07:07;19.21;69.89
65207;SHT31;58477;48.072;11.970;2023-06-26T05:09:33;20.43;66.51
65207;SHT31;58477;48.072;11.970;2023-06-26T05:11:59;20.85;65.59
65207;SHT31;58477;48.072;11.970;2023-06-26T05:14:24;21.31;63.92
65207;SHT31;58477;48.072;11.970;2023-06-26T05:16:49;22.16;62.87
65207;SHT31;58477;48.072;11.970;2023-06-26T05:19:15;22.27;61.88
65207;SHT31;58477;48.072;11.970;2023-06-26T05:21:40;21.17;64.01
65207;SHT31;58477;48.072;11.970;2023-06-26T05:24:08;21.24;63.93
65207;SHT31;58477;48.072;11.970;2023-06-26T05:26:34;21.24;64.38
65207;SHT31;58477;48.072;11.970;2023-06-26T05:28:59;21.04;63.98
65207;SHT31;58477;48.072;11.970;2023-06-26T05:31:25;22.24;61.48
65207;SHT31;58477;48.072;11.970;2023-06-26T05:33:53;21.58;62.06
65207;SHT31;58477;48.072;11.970;2023-06-26T05:36:22;22.33;60.08
65207;SHT31;58477;48.072;11.970;2023-06-26T05:38:49;22.36;59.57
65207;SHT31;58477;48.072;11.970;2023-06-26T05:41:15;22.67;59.83
65207;SHT31;58477;48.072;11.970;2023-06-26T05:43:41;22.74;59.13
65207;SHT31;58477;48.072;11.970;2023-06-26T05:46:06;22.32;60.49
65207;SHT31;58477;48.072;11.970;2023-06-26T05:48:32;23.65;58.59
65207;SHT31;58477;48.072;11.970;2023-06-26T05:50:57;23.44;57.45
65207;SHT31;58477;48.072;11.970;2023-06-26T05:53:23;23.85;57.07
65207;SHT31;58477;48.072;11.970;2023-06-26T05:55:49;24.20;56.82
65207;SHT31;58477;48.072;11.970;2023-06-26T05:58:16;23.37;56.32
65207;SHT31;58477;48.072;11.970;2023-06-26T06:00:43;23.86;57.66
65207;SHT31;58477;48.072;11.970;2023-06-26T06:03:09;22.81;59.09
65207;SHT31;58477;48.072;11.970;2023-06-26T06:05:35;24.94;55.80
65207;SHT31;58477;48.072;11.970;2023-06-26T06:08:01;25.73;55.54
65207;SHT31;58477;48.072;11.970;2023-06-26T06:10:26;26.48;53.08
65207;SHT31;58477;48.072;11.970;2023-06-26T06:12:51;26.04;53.05
65207;SHT31;58477;48.072;11.970;2023-06-26T06:15:17;26.80;52.75
65207;SHT31;58477;48.072;11.970;2023-06-26T06:17:42;25.85;54.47
65207;SHT31;58477;48.072;11.970;2023-06-26T06:20:08;25.35;55.49
65207;SHT31;58477;48.072;11.970;2023-06-26T06:22:34;25.35;53.96
65207;SHT31;58477;48.072;11.970;2023-06-26T06:24:59;27.12;52.41
65207;SHT31;58477;48.072;11.970;2023-06-26T06:27:26;26.99;51.65
65207;SHT31;58477;48.072;11.970;2023-06-26T06:29:51;26.80;52.85
65207;SHT31;58477;48.072;11.970;2023-06-26T06:32:16;25.99;53.89
65207;SHT31;58477;48.072;11.970;2023-06-26T06:34:42;26.73;52.60
65207;SHT31;58477;48.072;11.970;2023-06-26T06:37:07;26.51;52.96
65207;SHT31;58477;48.072;11.970;2023-06-26T06:39:32;27.29;52.48
65207;SHT31;58477;48.072;11.970;2023-06-26T06:41:58;26.98;53.61
65207;SHT31;58477;48.072;11.970;2023-06-26T06:44:24;27.65;52.14
65207;SHT31;58477;48.072;11.970;2023-06-26T06:46:49;27.99;51.71
65207;SHT31;58477;48.072;11.970;2023-06-26T06:49:14;28.78;48.63
65207;SHT31;58477;48.072;11.970;2023-06-26T06:51:40;27.92;49.70
65207;SHT31;58477;48.072;11.970;2023-06-26T06:54:05;28.72;48.51
65207;SHT31;58477;48.072;11.970;2023-06-26T06:56:31;29.08;48.74
65207;SHT31;58477;48.072;11.970;2023-06-26T06:58:56;28.18;50.35
65207;SHT31;58477;48.072;11.970;2023-06-26T07:01:22;27.53;50.13
65207;SHT31;58477;48.072;11.970;2023-06-26T07:03:47;26.84;52.02
65207;SHT31;58477;48.072;11.970;2023-06-26T07:06:13;27.94;51.36
65207;SHT31;58477;48.072;11.970;2023-06-26T07:08:38;28.46;48.71
65207;SHT31;58477;48.072;11.970;2023-06-26T07:11:04;27.45;49.86
65207;SHT31;58477;48.072;11.970;2023-06-26T07:13:29;29.61;48.10
65207;SHT31;58477;48.072;11.970;2023-06-26T07:15:55;27.53;50.24
65207;SHT31;58477;48.072;11.970;2023-06-26T07:18:20;26.94;51.82
65207;SHT31;58477;48.072;11.970;2023-06-26T07:20:45;28.30;50.74
65207;SHT31;58477;48.072;11.970;2023-06-26T07:23:11;27.83;51.65
65207;SHT31;58477;48.072;11.970;2023-06-26T07:25:36;29.11;49.32
65207;SHT31;58477;48.072;11.970;2023-06-26T07:28:02;27.93;52.14
65207;SHT31;58477;48.072;11.970;2023-06-26T07:30:28;29.95;48.48
65207;SHT31;58477;48.072;11.970;2023-06-26T07:32:53;29.93;47.55
65207;SHT31;58477;48.072;11.970;2023-06-26T07:35:19;30.29;47.81
65207;SHT31;58477;48.072;11.970;2023-06-26T07:37:45;30.63;46.51
65207;SHT31;58477;48.072;11.970;2023-06-26T07:40:10;30.34;47.07
65207;SHT31;58477;48.072;11.970;2023-06-26T07:42:36;30.94;46.17
65207;SHT31;58477;48.072;11.970;2023-06-26T07:45:02;29.04;48.47
65207;SHT31;58477;48.072;11.970;2023-06-26T07:47:35;30.17;46.38
65207;SHT31;58477;48.072;11.970;2023-06-26T07:50:00;31.24;46.34
65207;SHT31;58477;48.072;11.970;2023-06-26T07:52:26;30.92;46.55
65207;SHT31;58477;48.072;11.970;2023-06-26T07:54:52;32.19;46.19
65207;SHT31;58477;48.072;11.970;2023-06-26T07:57:17;31.05;45.32
65207;SHT31;58477;48.072;11.970;2023-06-26T07:59:42;31.99;46.20
65207;SHT31;58477;48.072;11.970;2023-06-26T08:02:08;33.07;43.63
65207;SHT31;58477;48.072;11.970;2023-06-26T08:04:33;31.70;46.20
65207;SHT31;58477;48.072;11.970;2023-06-26T08:07:00;32.14;43.76
65207;SHT31;58477;48.072;11.970;2023-06-26T08:09:27;33.29;43.86
65207;SHT31;58477;48.072;11.970;2023-06-26T08:11:53;33.69;43.67
65207;SHT31;58477;48.072;11.970;2023-06-26T08:14:19;32.91;42.31
65207;SHT31;58477;48.072;11.970;2023-06-26T08:16:45;32.85;41.63
65207;SHT31;58477;48.072;11.970;2023-06-26T08:19:14;33.08;42.82
65207;SHT31;58477;48.072;11.970;2023-06-26T08:21:41;33.80;43.28
65207;SHT31;58477;48.072;11.970;2023-06-26T08:24:06;33.55;42.82
65207;SHT31;58477;48.072;11.970;2023-06-26T08:26:32;33.03;41.20
65207;SHT31;58477;48.072;11.970;2023-06-26T08:28:57;33.00;42.47
65207;SHT31;58477;48.072;11.970;2023-06-26T08:31:23;33.51;41.11
65207;SHT31;58477;48.072;11.970;2023-06-26T08:33:48;32.81;40.44
65207;SHT31;58477;48.072;11.970;2023-06-26T08:36:14;33.44;39.58
65207;SHT31;58477;48.072;11.970;2023-06-26T08:38:39;32.83;39.71
65207;SHT31;58477;48.072;11.970;2023-06-26T08:41:09;32.44;39.67
65207;SHT31;58477;48.072;11.970;2023-06-26T08:43:35;33.93;38.83
65207;SHT31;58477;48.072;11.970;2023-06-26T08:46:02;33.78;39.67
65207;SHT31;58477;48.072;11.970;2023-06-26T08:48:29;34.35;41.31
65207;SHT31;58477;48.072;11.970;2023-06-26T08:50:57;34.74;39.25
65207;SHT31;58477;48.072;11.970;2023-06-26T08:55:54;33.76;39.26
65207;SHT31;58477;48.072;11.970;2023-06-26T08:58:22;34.49;39.99
65207;SHT31;58477;48.072;11.970;2023-06-26T09:00:48;34.67;39.76
65207;SHT31;58477;48.072;11.970;2023-06-26T09:03:15;34.05;40.41
65207;SHT31;58477;48.072;11.970;2023-06-26T09:05:41;33.73;40.10
65207;SHT31;58477;48.072;11.970;2023-06-26T09:08:07;34.33;40.00
65207;SHT31;58477;48.072;11.970;2023-06-26T09:10:32;35.98;38.20
65207;SHT31;58477;48.072;11.970;2023-06-26T09:12:58;34.60;40.16
65207;SHT31;58477;48.072;11.970;2023-06-26T09:15:24;36.12;37.76
65207;SHT31;58477;48.072;11.970;2023-06-26T09:17:50;35.21;38.24
65207;SHT31;58477;48.072;11.970;2023-06-26T09:20:15;34.88;37.58
65207;SHT31;58477;48.072;11.970;2023-06-26T09:22:42;34.26;38.97
65207;SHT31;58477;48.072;11.970;2023-06-26T09:25:08;34.21;38.79
65207;SHT31;58477;48.072;11.970;2023-06-26T09:27:35;35.59;37.36
65207;SHT31;58477;48.072;11.970;2023-06-26T09:30:05;36.40;36.50
65207;SHT31;58477;48.072;11.970;2023-06-26T09:32:37;36.74;36.35
65207;SHT31;58477;48.072;11.970;2023-06-26T09:35:03;37.65;34.98
65207;SHT31;58477;48.072;11.970;2023-06-26T09:37:29;36.57;36.70
65207;SHT31;58477;48.072;11.970;2023-06-26T09:39:55;34.10;38.41
65207;SHT31;58477;48.072;11.970;2023-06-26T09:42:21;34.53;38.78
65207;SHT31;58477;48.072;11.970;2023-06-26T09:44:47;35.77;37.30
65207;SHT31;58477;48.072;11.970;2023-06-26T09:47:16;35.65;37.45
65207;SHT31;58477;48.072;11.970;2023-06-26T09:49:42;33.95;38.24
65207;SHT31;58477;48.072;11.970;2023-06-26T09:52:08;35.44;36.58
65207;SHT31;58477;48.072;11.970;2023-06-26T09:54:34;35.13;38.06
65207;SHT31;58477;48.072;11.970;2023-06-26T09:57:08;36.86;37.14
65207;SHT31;58477;48.072;11.970;2023-06-26T09:59:34;35.28;38.44
65207;SHT31;58477;48.072;11.970;2023-06-26T10:02:00;35.34;38.56
65207;SHT31;58477;48.072;11.970;2023-06-26T10:04:26;34.47;40.37
65207;SHT31;58477;48.072;11.970;2023-06-26T10:06:54;34.15;38.89
65207;SHT31;58477;48.072;11.970;2023-06-26T10:09:21;34.68;38.33
65207;SHT31;58477;48.072;11.970;2023-06-26T10:11:59;34.32;40.09
65207;SHT31;58477;48.072;11.970;2023-06-26T10:14:28;35.01;35.87
65207;SHT31;58477;48.072;11.970;2023-06-26T10:16:57;35.41;37.88
65207;SHT31;58477;48.072;11.970;2023-06-26T10:19:24;34.44;37.00
65207;SHT31;58477;48.072;11.970;2023-06-26T10:21:55;35.49;37.57
65207;SHT31;58477;48.072;11.970;2023-06-26T10:24:22;34.70;37.27
65207;SHT31;58477;48.072;11.970;2023-06-26T10:26:50;35.57;37.99
65207;SHT31;58477;48.072;11.970;2023-06-26T10:29:19;35.92;37.59
65207;SHT31;58477;48.072;11.970;2023-06-26T10:31:50;34.83;37.56
65207;SHT31;58477;48.072;11.970;2023-06-26T10:34:17;36.08;35.77
65207;SHT31;58477;48.072;11.970;2023-06-26T10:36:42;37.18;35.74
65207;SHT31;58477;48.072;11.970;2023-06-26T10:39:08;36.36;36.21
65207;SHT31;58477;48.072;11.970;2023-06-26T10:41:38;37.62;34.60
65207;SHT31;58477;48.072;11.970;2023-06-26T10:44:07;36.36;35.93
65207;SHT31;58477;48.072;11.970;2023-06-26T10:46:48;35.00;37.59
65207;SHT31;58477;48.072;11.970;2023-06-26T10:49:14;34.54;37.92
65207;SHT31;58477;48.072;11.970;2023-06-26T10:51:46;33.70;39.28
65207;SHT31;58477;48.072;11.970;2023-06-26T10:54:14;35.42;38.10
65207;SHT31;58477;48.072;11.970;2023-06-26T10:56:47;35.31;40.69
65207;SHT31;58477;48.072;11.970;2023-06-26T10:59:20;33.32;40.25
65207;SHT31;58477;48.072;11.970;2023-06-26T11:01:57;32.87;41.35
65207;SHT31;58477;48.072;11.970;2023-06-26T11:04:45;32.70;41.82
65207;SHT31;58477;48.072;11.970;2023-06-26T11:07:24;32.77;42.06
65207;SHT31;58477;48.072;11.970;2023-06-26T11:10:01;33.93;38.53
65207;SHT31;58477;48.072;11.970;2023-06-26T11:12:40;34.44;37.50
65207;SHT31;58477;48.072;11.970;2023-06-26T11:15:15;36.09;36.25
65207;SHT31;58477;48.072;11.970;2023-06-26T11:17:42;35.45;37.27
65207;SHT31;58477;48.072;11.970;2023-06-26T11:20:13;36.37;37.59
65207;SHT31;58477;48.072;11.970;2023-06-26T11:22:39;35.82;36.51
65207;SHT31;58477;48.072;11.970;2023-06-26T11:25:06;34.88;36.25
65207;SHT31;58477;48.072;11.970;2023-06-26T11:30:08;37.42;35.06
65207;SHT31;58477;48.072;11.970;2023-06-26T11:32:34;36.52;33.33
65207;SHT31;58477;48.072;11.970;2023-06-26T11:34:59;38.15;33.87
65207;SHT31;58477;48.072;11.970;2023-06-26T11:37:25;37.95;35.27
65207;SHT31;58477;48.072;11.970;2023-06-26T11:39:51;37.10;34.89
65207;SHT31;58477;48.072;11.970;2023-06-26T11:42:18;37.64;34.30
65207;SHT31;58477;48.072;11.970;2023-06-26T11:44:44;37.21;33.34
65207;SHT31;58477;48.072;11.970;2023-06-26T11:47:17;37.34;32.91
65207;SHT31;58477;48.072;11.970;2023-06-26T11:49:44;35.38;35.91
65207;SHT31;58477;48.072;11.970;2023-06-26T11:52:09;34.03;38.13
65207;SHT31;58477;48.072;11.970;2023-06-26T11:54:35;33.07;38.44
65207;SHT31;58477;48.072;11.970;2023-06-26T11:57:00;34.08;38.34
65207;SHT31;58477;48.072;11.970;2023-06-26T11:59:39;34.61;36.91
65207;SHT31;58477;48.072;11.970;2023-06-26T12:02:10;33.83;37.92
65207;SHT31;58477;48.072;11.970;2023-06-26T12:04:41;33.01;38.52
65207;SHT31;58477;48.072;11.970;2023-06-26T12:07:09;33.48;39.09
65207;SHT31;58477;48.072;11.970;2023-06-26T12:09:46;33.61;38.70
65207;SHT31;58477;48.072;11.970;2023-06-26T12:12:15;34.60;38.24
65207;SHT31;58477;48.072;11.970;2023-06-26T12:14:41;35.44;37.41
65207;SHT31;58477;48.072;11.970;2023-06-26T12:17:12;34.41;39.04
65207;SHT31;58477;48.072;11.970;2023-06-26T12:19:42;34.06;37.53
65207;SHT31;58477;48.072;11.970;2023-06-26T12:22:08;34.06;38.37
65207;SHT31;58477;48.072;11.970;2023-06-26T12:24:38;32.37;39.41
65207;SHT31;58477;48.072;11.970;2023-06-26T12:27:08;32.34;39.82
65207;SHT31;58477;48.072;11.970;2023-06-26T12:29:34;32.75;40.32
65207;SHT31;58477;48.072;11.970;2023-06-26T12:32:00;33.76;38.98
65207;SHT31;58477;48.072;11.970;2023-06-26T12:34:31;34.21;39.14
65207;SHT31;58477;48.072;11.970;2023-06-26T12:37:02;34.10;36.57
65207;SHT31;58477;48.072;11.970;2023-06-26T12:39:29;33.49;39.39
65207;SHT31;58477;48.072;11.970;2023-06-26T12:42:00;33.05;38.87
65207;SHT31;58477;48.072;11.970;2023-06-26T12:44:30;33.83;40.10
65207;SHT31;58477;48.072;11.970;2023-06-26T12:47:00;34.00;39.28
65207;SHT31;58477;48.072;11.970;2023-06-26T12:49:50;33.51;39.95
65207;SHT31;58477;48.072;11.970;2023-06-26T12:52:16;33.34;40.55
65207;SHT31;58477;48.072;11.970;2023-06-26T12:54:43;32.65;41.94
65207;SHT31;58477;48.072;11.970;2023-06-26T12:57:09;32.44;40.39
65207;SHT31;58477;48.072;11.970;2023-06-26T12:59:37;33.99;40.42
65207;SHT31;58477;48.072;11.970;2023-06-26T13:02:03;34.94;38.55
65207;SHT31;58477;48.072;11.970;2023-06-26T13:04:29;34.63;39.81
65207;SHT31;58477;48.072;11.970;2023-06-26T13:06:54;35.07;39.42
65207;SHT31;58477;48.072;11.970;2023-06-26T13:09:20;34.53;38.66
65207;SHT31;58477;48.072;11.970;2023-06-26T13:11:46;34.05;39.43
65207;SHT31;58477;48.072;11.970;2023-06-26T13:14:11;34.16;37.80
65207;SHT31;58477;48.072;11.970;2023-06-26T13:16:37;33.98;38.50
65207;SHT31;58477;48.072;11.970;2023-06-26T13:19:03;34.56;38.26
65207;SHT31;58477;48.072;11.970;2023-06-26T13:21:28;34.56;38.92
65207;SHT31;58477;48.072;11.970;2023-06-26T13:23:55;34.77;38.76
65207;SHT31;58477;48.072;11.970;2023-06-26T13:26:21;34.83;37.18
65207;SHT31;58477;48.072;11.970;2023-06-26T13:28:48;34.63;37.44
65207;SHT31;58477;48.072;11.970;2023-06-26T13:31:13;34.57;36.73
65207;SHT31;58477;48.072;11.970;2023-06-26T13:33:39;35.27;37.21
65207;SHT31;58477;48.072;11.970;2023-06-26T13:36:04;34.19;38.52
65207;SHT31;58477;48.072;11.970;2023-06-26T13:38:32;33.08;41.17
65207;SHT31;58477;48.072;11.970;2023-06-26T13:40:58;33.10;39.28
65207;SHT31;58477;48.072;11.970;2023-06-26T13:43:26;34.02;39.22
65207;SHT31;58477;48.072;11.970;2023-06-26T13:45:52;33.95;39.96
65207;SHT31;58477;48.072;11.970;2023-06-26T13:48:18;32.50;40.67
65207;SHT31;58477;48.072;11.970;2023-06-26T13:50:45;33.36;40.06
65207;SHT31;58477;48.072;11.970;2023-06-26T13:53:10;34.06;40.17
65207;SHT31;58477;48.072;11.970;2023-06-26T13:55:36;32.94;39.69
65207;SHT31;58477;48.072;11.970;2023-06-26T13:58:06;32.64;40.64
65207;SHT31;58477;48.072;11.970;2023-06-26T14:00:35;31.83;42.31
65207;SHT31;58477;48.072;11.970;2023-06-26T14:03:02;32.14;43.83
65207;SHT31;58477;48.072;11.970;2023-06-26T14:05:29;31.87;41.61
65207;SHT31;58477;48.072;11.970;2023-06-26T14:07:55;32.60;41.85
65207;SHT31;58477;48.072;11.970;2023-06-26T14:10:21;33.80;40.36
65207;SHT31;58477;48.072;11.970;2023-06-26T14:12:46;34.32;38.94
65207;SHT31;58477;48.072;11.970;2023-06-26T14:15:12;34.12;38.66
65207;SHT31;58477;48.072;11.970;2023-06-26T14:17:38;34.00;37.19
65207;SHT31;58477;48.072;11.970;2023-06-26T14:20:09;34.09;39.14
65207;SHT31;58477;48.072;11.970;2023-06-26T14:22:38;33.45;39.08
65207;SHT31;58477;48.072;11.970;2023-06-26T14:25:04;32.57;40.25
65207;SHT31;58477;48.072;11.970;2023-06-26T14:27:29;32.95;41.36
65207;SHT31;58477;48.072;11.970;2023-06-26T14:29:55;33.36;41.19
65207;SHT31;58477;48.072;11.970;2023-06-26T14:32:20;33.45;39.22
65207;SHT31;58477;48.072;11.970;2023-06-26T14:34:45;33.76;40.63
65207;SHT31;58477;48.072;11.970;2023-06-26T14:37:11;33.90;39.39
65207;SHT31;58477;48.072;11.970;2023-06-26T14:39:36;34.05;40.29
65207;SHT31;58477;48.072;11.970;2023-06-26T14:42:04;32.83;40.41
65207;SHT31;58477;48.072;11.970;2023-06-26T14:44:30;32.12;42.42
65207;SHT31;58477;48.072;11.970;2023-06-26T14:46:55;31.25;42.77
65207;SHT31;58477;48.072;11.970;2023-06-26T14:49:20;31.24;43.70
65207;SHT31;58477;48.072;11.970;2023-06-26T14:51:46;31.42;44.01
65207;SHT31;58477;48.072;11.970;2023-06-26T14:54:11;31.59;43.34
65207;SHT31;58477;48.072;11.970;2023-06-26T14:56:37;32.24;43.03
65207;SHT31;58477;48.072;11.970;2023-06-26T14:59:02;32.74;42.33
65207;SHT31;58477;48.072;11.970;2023-06-26T15:01:28;32.26;40.95
65207;SHT31;58477;48.072;11.970;2023-06-26T15:03:53;32.64;42.01
65207;SHT31;58477;48.072;11.970;2023-06-26T15:06:18;32.54;42.07
65207;SHT31;58477;48.072;11.970;2023-06-26T15:08:44;32.06;42.33
65207;SHT31;58477;48.072;11.970;2023-06-26T15:11:09;31.87;41.87
65207;SHT31;58477;48.072;11.970;2023-06-26T15:13:35;31.90;43.25
65207;SHT31;58477;48.072;11.970;2023-06-26T15:16:00;32.27;42.72
65207;SHT31;58477;48.072;11.970;2023-06-26T15:18:25;31.55;41.69
65207;SHT31;58477;48.072;11.970;2023-06-26T15:20:51;32.20;45.11
65207;SHT31;58477;48.072;11.970;2023-06-26T15:23:16;32.14;42.83